sensor_id;sensor_type;location;lat;lon;timestamp;P1;durP1;ratioP1;P2;durP2;ratioP2
13404;SDS011;6773;51.192;7.024;2024-03-02T00:00:18;3.60;;;3.30;;
13404;SDS011;6773;51.192;7.024;2024-03-02T00:02:46;3.60;;;3.40;;
13404;SDS011;6773;51.192;7.024;2024-03-02T00:05:13;3.43;;;3.23;;
13404;SDS011;6773;51.192;7.024;2024-03-02T00:07:41;4.87;;;3.50;;
13404;SDS011;6773;51.192;7.024;2024-03-02T00:10:08;3.83;;;3.50;;
13404;SDS011;6773;51.192;7.024;2024-03-02T00:12:37;3.47;;;3.17;;
13404;SDS011;6773;51.192;7.024;2024-03-02T00:15:13;3.60;;;3.30;;
13404;SDS011;6773;51.192;7.024;2024-03-02T00:17:42;3.50;;;3.20;;
13404;SDS011;6773;51.192;7.024;2024-03-02T00:20:08;3.50;;;3.20;;
13404;SDS011;6773;51.192;7.024;2024-03-02T00:22:35;3.50;;;3.30;;
13404;SDS011;6773;51.192;7.024;2024-03-02T00:25:02;3.37;;;3.17;;
13404;SDS011;6773;51.192;7.024;2024-03-02T00:27:29;3.60;;;3.40;;
13404;SDS011;6773;51.192;7.024;2024-03-02T00:29:54;3.40;;;3.03;;
13404;SDS011;6773;51.192;7.024;2024-03-02T00:32:20;3.07;;;2.90;;
13404;SDS011;6773;51.192;7.024;2024-03-02T00:34:46;3.30;;;3.10;;
13404;SDS011;6773;51.192;7.024;2024-03-02T00:37:12;2.90;;;2.70;;
13404;SDS011;6773;51.192;7.024;2024-03-02T00:39:39;3.50;;;3.20;;
13404;SDS011;6773;51.192;7.024;2024-03-02T00:42:05;2.80;;;2.70;;
13404;SDS011;6773;51.192;7.024;2024-03-02T00:44:31;3.23;;;3.00;;
13404;SDS011;6773;51.192;7.024;2024-03-02T00:47:00;3.53;;;3.13;;
13404;SDS011;6773;51.192;7.024;2024-03-02T00:49:27;3.37;;;3.07;;
13404;SDS011;6773;51.192;7.024;2024-03-02T00:51:53;3.00;;;2.90;;
13404;SDS011;6773;51.192;7.024;2024-03-02T00:54:28;2.90;;;2.70;;
13404;SDS011;6773;51.192;7.024;2024-03-02T00:56:55;2.80;;;2.67;;
13404;SDS011;6773;51.192;7.024;2024-03-02T00:59:22;3.27;;;3.07;;
13404;SDS011;6773;51.192;7.024;2024-03-02T01:01:48;3.00;;;2.80;;
13404;SDS011;6773;51.192;7.024;2024-03-02T01:04:15;3.50;;;2.93;;
13404;SDS011;6773;51.192;7.024;2024-03-02T01:06:43;2.77;;;2.60;;
13404;SDS011;6773;51.192;7.024;2024-03-02T01:09:09;3.10;;;2.73;;
13404;SDS011;6773;51.192;7.024;2024-03-02T01:11:37;2.97;;;2.77;;
13404;SDS011;6773;51.192;7.024;2024-03-02T01:14:03;3.40;;;3.10;;
13404;SDS011;6773;51.192;7.024;2024-03-02T01:16:29;2.90;;;2.70;;
13404;SDS011;6773;51.192;7.024;2024-03-02T01:18:55;2.80;;;2.70;;
13404;SDS011;6773;51.192;7.024;2024-03-02T01:21:21;2.83;;;2.70;;
13404;SDS011;6773;51.192;7.024;2024-03-02T01:23:47;4.97;;;3.10;;
13404;SDS011;6773;51.192;7.024;2024-03-02T01:26:13;3.00;;;2.80;;
13404;SDS011;6773;51.192;7.024;2024-03-02T01:28:39;3.20;;;3.00;;
13404;SDS011;6773;51.192;7.024;2024-03-02T01:31:05;3.33;;;2.93;;
13404;SDS011;6773;51.192;7.024;2024-03-02T01:33:31;3.10;;;2.90;;
13404;SDS011;6773;51.192;7.024;2024-03-02T01:35:57;2.90;;;2.70;;
13404;SDS011;6773;51.192;7.024;2024-03-02T01:38:23;2.80;;;2.63;;
13404;SDS011;6773;51.192;7.024;2024-03-02T01:40:49;3.20;;;3.00;;
13404;SDS011;6773;51.192;7.024;2024-03-02T01:43:16;2.80;;;2.63;;
13404;SDS011;6773;51.192;7.024;2024-03-02T01:45:42;3.13;;;2.83;;
13404;SDS011;6773;51.192;7.024;2024-03-02T01:48:08;2.73;;;2.63;;
13404;SDS011;6773;51.192;7.024;2024-03-02T01:50:34;2.63;;;2.50;;
13404;SDS011;6773;51.192;7.024;2024-03-02T01:53:00;2.87;;;2.53;;
13404;SDS011;6773;51.192;7.024;2024-03-02T01:55:29;2.90;;;2.70;;
13404;SDS011;6773;51.192;7.024;2024-03-02T01:57:55;2.97;;;2.77;;
13404;SDS011;6773;51.192;7.024;2024-03-02T02:00:22;2.87;;;2.67;;
13404;SDS011;6773;51.192;7.024;2024-03-02T02:02:50;3.13;;;2.83;;
13404;SDS011;6773;51.192;7.024;2024-03-02T02:05:16;2.73;;;2.53;;
13404;SDS011;6773;51.192;7.024;2024-03-02T02:07:42;3.00;;;2.80;;
13404;SDS011;6773;51.192;7.024;2024-03-02T02:10:09;3.33;;;2.60;;
13404;SDS011;6773;51.192;7.024;2024-03-02T02:12:35;2.90;;;2.60;;
13404;SDS011;6773;51.192;7.024;2024-03-02T02:15:01;2.60;;;2.40;;
13404;SDS011;6773;51.192;7.024;2024-03-02T02:17:28;2.77;;;2.57;;
13404;SDS011;6773;51.192;7.024;2024-03-02T02:19:54;2.97;;;2.67;;
13404;SDS011;6773;51.192;7.024;2024-03-02T02:22:19;2.70;;;2.50;;
13404;SDS011;6773;51.192;7.024;2024-03-02T02:24:45;2.90;;;2.60;;
13404;SDS011;6773;51.192;7.024;2024-03-02T02:27:11;2.47;;;2.37;;
13404;SDS011;6773;51.192;7.024;2024-03-02T02:29:40;3.27;;;2.70;;
13404;SDS011;6773;51.192;7.024;2024-03-02T02:32:06;2.73;;;2.53;;
13404;SDS011;6773;51.192;7.024;2024-03-02T02:34:32;2.70;;;2.50;;
13404;SDS011;6773;51.192;7.024;2024-03-02T02:36:59;2.87;;;2.60;;
13404;SDS011;6773;51.192;7.024;2024-03-02T02:39:25;3.27;;;2.47;;
13404;SDS011;6773;51.192;7.024;2024-03-02T02:41:51;2.73;;;2.50;;
13404;SDS011;6773;51.192;7.024;2024-03-02T02:44:16;3.63;;;2.60;;
13404;SDS011;6773;51.192;7.024;2024-03-02T02:46:42;2.67;;;2.47;;
13404;SDS011;6773;51.192;7.024;2024-03-02T02:49:08;3.40;;;2.63;;
13404;SDS011;6773;51.192;7.024;2024-03-02T02:51:35;3.50;;;2.60;;
13404;SDS011;6773;51.192;7.024;2024-03-02T02:54:01;2.97;;;2.67;;
13404;SDS011;6773;51.192;7.024;2024-03-02T02:56:27;3.60;;;2.40;;
13404;SDS011;6773;51.192;7.024;2024-03-02T02:58:53;2.50;;;2.40;;
13404;SDS011;6773;51.192;7.024;2024-03-02T03:01:19;2.70;;;2.50;;
13404;SDS011;6773;51.192;7.024;2024-03-02T03:03:45;2.73;;;2.53;;
13404;SDS011;6773;51.192;7.024;2024-03-02T03:06:11;3.47;;;2.53;;
13404;SDS011;6773;51.192;7.024;2024-03-02T03:08:37;2.90;;;2.70;;
13404;SDS011;6773;51.192;7.024;2024-03-02T03:11:03;3.00;;;2.70;;
13404;SDS011;6773;51.192;7.024;2024-03-02T03:13:33;2.60;;;2.50;;
13404;SDS011;6773;51.192;7.024;2024-03-02T03:15:59;2.70;;;2.50;;
13404;SDS011;6773;51.192;7.024;2024-03-02T03:18:25;2.80;;;2.60;;
13404;SDS011;6773;51.192;7.024;2024-03-02T03:20:51;2.87;;;2.67;;
13404;SDS011;6773;51.192;7.024;2024-03-02T03:23:17;2.90;;;2.70;;
13404;SDS011;6773;51.192;7.024;2024-03-02T03:25:43;3.80;;;2.70;;
13404;SDS011;6773;51.192;7.024;2024-03-02T03:28:09;3.03;;;2.73;;
13404;SDS011;6773;51.192;7.024;2024-03-02T03:30:38;2.90;;;2.70;;
13404;SDS011;6773;51.192;7.024;2024-03-02T03:33:05;3.17;;;2.97;;
13404;SDS011;6773;51.192;7.024;2024-03-02T03:35:31;3.03;;;2.80;;
13404;SDS011;6773;51.192;7.024;2024-03-02T03:37:57;3.00;;;2.70;;
13404;SDS011;6773;51.192;7.024;2024-03-02T03:40:23;3.00;;;2.80;;
13404;SDS011;6773;51.192;7.024;2024-03-02T03:42:49;3.40;;;3.20;;
13404;SDS011;6773;51.192;7.024;2024-03-02T03:45:16;2.80;;;2.60;;
13404;SDS011;6773;51.192;7.024;2024-03-02T03:47:42;3.40;;;3.10;;
13404;SDS011;6773;51.192;7.024;2024-03-02T03:50:08;3.20;;;3.00;;
13404;SDS011;6773;51.192;7.024;2024-03-02T03:52:34;3.20;;;2.80;;
13404;SDS011;6773;51.192;7.024;2024-03-02T03:55:00;3.00;;;2.70;;
13404;SDS011;6773;51.192;7.024;2024-03-02T03:57:26;2.87;;;2.67;;
13404;SDS011;6773;51.192;7.024;2024-03-02T03:59:52;4.70;;;2.73;;
13404;SDS011;6773;51.192;7.024;2024-03-02T04:02:19;3.23;;;2.93;;
13404;SDS011;6773;51.192;7.024;2024-03-02T04:04:45;3.80;;;3.13;;
13404;SDS011;6773;51.192;7.024;2024-03-02T04:07:11;3.73;;;3.00;;
13404;SDS011;6773;51.192;7.024;2024-03-02T04:09:37;2.90;;;2.70;;
13404;SDS011;6773;51.192;7.024;2024-03-02T04:12:03;3.53;;;2.97;;
13404;SDS011;6773;51.192;7.024;2024-03-02T04:14:29;3.17;;;2.83;;
13404;SDS011;6773;51.192;7.024;2024-03-02T04:16:55;2.97;;;2.77;;
13404;SDS011;6773;51.192;7.024;2024-03-02T04:19:21;3.47;;;2.90;;
13404;SDS011;6773;51.192;7.024;2024-03-02T04:21:47;2.90;;;2.70;;
13404;SDS011;6773;51.192;7.024;2024-03-02T04:24:13;3.47;;;3.10;;
13404;SDS011;6773;51.192;7.024;2024-03-02T04:26:38;3.17;;;2.87;;
13404;SDS011;6773;51.192;7.024;2024-03-02T04:29:04;3.20;;;2.90;;
13404;SDS011;6773;51.192;7.024;2024-03-02T04:31:30;3.20;;;3.00;;
13404;SDS011;6773;51.192;7.024;2024-03-02T04:33:56;3.40;;;3.10;;
13404;SDS011;6773;51.192;7.024;2024-03-02T04:36:22;3.00;;;2.70;;
13404;SDS011;6773;51.192;7.024;2024-03-02T04:38:48;2.97;;;2.83;;
13404;SDS011;6773;51.192;7.024;2024-03-02T04:41:14;3.53;;;3.23;;
13404;SDS011;6773;51.192;7.024;2024-03-02T04:43:40;3.07;;;2.80;;
13404;SDS011;6773;51.192;7.024;2024-03-02T04:46:06;3.37;;;3.03;;
13404;SDS011;6773;51.192;7.024;2024-03-02T04:48:33;3.37;;;3.03;;
13404;SDS011;6773;51.192;7.024;2024-03-02T04:50:59;4.13;;;3.17;;
13404;SDS011;6773;51.192;7.024;2024-03-02T04:53:25;3.13;;;2.93;;
13404;SDS011;6773;51.192;7.024;2024-03-02T04:55:51;3.40;;;3.10;;
13404;SDS011;6773;51.192;7.024;2024-03-02T04:58:37;2.90;;;2.70;;
13404;SDS011;6773;51.192;7.024;2024-03-02T05:01:03;3.73;;;3.40;;
13404;SDS011;6773;51.192;7.024;2024-03-02T05:03:29;3.30;;;3.10;;
13404;SDS011;6773;51.192;7.024;2024-03-02T05:05:55;3.63;;;3.33;;
13404;SDS011;6773;51.192;7.024;2024-03-02T05:08:21;3.50;;;3.30;;
13404;SDS011;6773;51.192;7.024;2024-03-02T05:10:47;3.50;;;3.20;;
13404;SDS011;6773;51.192;7.024;2024-03-02T05:13:12;3.17;;;3.00;;
13404;SDS011;6773;51.192;7.024;2024-03-02T05:15:38;3.73;;;3.37;;
13404;SDS011;6773;51.192;7.024;2024-03-02T05:18:05;3.20;;;3.00;;
13404;SDS011;6773;51.192;7.024;2024-03-02T05:20:31;3.53;;;3.33;;
13404;SDS011;6773;51.192;7.024;2024-03-02T05:22:57;4.80;;;3.13;;
13404;SDS011;6773;51.192;7.024;2024-03-02T05:25:23;4.57;;;3.70;;
13404;SDS011;6773;51.192;7.024;2024-03-02T05:27:49;3.50;;;3.20;;
13404;SDS011;6773;51.192;7.024;2024-03-02T05:30:15;3.50;;;3.20;;
13404;SDS011;6773;51.192;7.024;2024-03-02T05:32:41;3.80;;;3.50;;
13404;SDS011;6773;51.192;7.024;2024-03-02T05:35:07;3.37;;;3.17;;
13404;SDS011;6773;51.192;7.024;2024-03-02T05:37:33;3.80;;;3.37;;
13404;SDS011;6773;51.192;7.024;2024-03-02T05:39:59;3.80;;;3.50;;
13404;SDS011;6773;51.192;7.024;2024-03-02T05:42:25;4.10;;;3.50;;
13404;SDS011;6773;51.192;7.024;2024-03-02T05:44:52;3.57;;;3.27;;
13404;SDS011;6773;51.192;7.024;2024-03-02T05:47:19;3.90;;;3.60;;
13404;SDS011;6773;51.192;7.024;2024-03-02T05:49:45;3.83;;;3.60;;
13404;SDS011;6773;51.192;7.024;2024-03-02T05:52:11;4.63;;;3.30;;
13404;SDS011;6773;51.192;7.024;2024-03-02T05:54:37;3.90;;;3.70;;
13404;SDS011;6773;51.192;7.024;2024-03-02T05:57:04;3.70;;;3.40;;
13404;SDS011;6773;51.192;7.024;2024-03-02T05:59:51;3.60;;;3.40;;
13404;SDS011;6773;51.192;7.024;2024-03-02T06:02:17;4.23;;;3.80;;
13404;SDS011;6773;51.192;7.024;2024-03-02T06:04:43;4.10;;;3.80;;
13404;SDS011;6773;51.192;7.024;2024-03-02T06:07:09;5.63;;;4.13;;
13404;SDS011;6773;51.192;7.024;2024-03-02T06:09:35;3.60;;;3.40;;
13404;SDS011;6773;51.192;7.024;2024-03-02T06:12:01;3.90;;;3.60;;
13404;SDS011;6773;51.192;7.024;2024-03-02T06:14:28;3.67;;;3.47;;
13404;SDS011;6773;51.192;7.024;2024-03-02T06:16:54;3.73;;;3.53;;
13404;SDS011;6773;51.192;7.024;2024-03-02T06:19:21;4.40;;;3.93;;
13404;SDS011;6773;51.192;7.024;2024-03-02T06:21:46;4.20;;;3.90;;
13404;SDS011;6773;51.192;7.024;2024-03-02T06:24:12;4.20;;;3.90;;
13404;SDS011;6773;51.192;7.024;2024-03-02T06:26:38;4.63;;;3.73;;
13404;SDS011;6773;51.192;7.024;2024-03-02T06:29:04;4.30;;;4.00;;
13404;SDS011;6773;51.192;7.024;2024-03-02T06:31:30;4.30;;;4.00;;
13404;SDS011;6773;51.192;7.024;2024-03-02T06:33:56;4.10;;;3.80;;
13404;SDS011;6773;51.192;7.024;2024-03-02T06:36:22;4.30;;;4.00;;
13404;SDS011;6773;51.192;7.024;2024-03-02T06:38:48;7.30;;;4.50;;
13404;SDS011;6773;51.192;7.024;2024-03-02T06:41:14;4.17;;;3.87;;
13404;SDS011;6773;51.192;7.024;2024-03-02T06:43:40;4.40;;;4.10;;
13404;SDS011;6773;51.192;7.024;2024-03-02T06:46:06;5.20;;;4.80;;
13404;SDS011;6773;51.192;7.024;2024-03-02T06:48:34;5.07;;;4.13;;
13404;SDS011;6773;51.192;7.024;2024-03-02T06:51:00;4.47;;;4.07;;
13404;SDS011;6773;51.192;7.024;2024-03-02T06:53:26;4.50;;;4.10;;
13404;SDS011;6773;51.192;7.024;2024-03-02T06:55:53;4.20;;;3.80;;
13404;SDS011;6773;51.192;7.024;2024-03-02T06:58:19;4.73;;;4.33;;
13404;SDS011;6773;51.192;7.024;2024-03-02T07:00:44;4.40;;;4.10;;
13404;SDS011;6773;51.192;7.024;2024-03-02T07:03:10;4.77;;;4.47;;
13404;SDS011;6773;51.192;7.024;2024-03-02T07:05:37;4.40;;;4.00;;
13404;SDS011;6773;51.192;7.024;2024-03-02T07:08:03;5.07;;;4.43;;
13404;SDS011;6773;51.192;7.024;2024-03-02T07:10:30;4.77;;;4.40;;
13404;SDS011;6773;51.192;7.024;2024-03-02T07:12:56;4.97;;;4.40;;
13404;SDS011;6773;51.192;7.024;2024-03-02T07:15:22;5.10;;;4.70;;
13404;SDS011;6773;51.192;7.024;2024-03-02T07:17:54;5.00;;;4.60;;
13404;SDS011;6773;51.192;7.024;2024-03-02T07:20:20;4.63;;;4.33;;
13404;SDS011;6773;51.192;7.024;2024-03-02T07:22:46;5.87;;;4.17;;
13404;SDS011;6773;51.192;7.024;2024-03-02T07:25:12;4.50;;;4.10;;
13404;SDS011;6773;51.192;7.024;2024-03-02T07:27:38;4.90;;;4.40;;
13404;SDS011;6773;51.192;7.024;2024-03-02T07:30:04;4.57;;;4.17;;
13404;SDS011;6773;51.192;7.024;2024-03-02T07:32:30;5.17;;;4.77;;
13404;SDS011;6773;51.192;7.024;2024-03-02T07:34:56;4.93;;;4.53;;
13404;SDS011;6773;51.192;7.024;2024-03-02T07:37:23;4.50;;;4.20;;
13404;SDS011;6773;51.192;7.024;2024-03-02T07:39:49;4.47;;;4.17;;
13404;SDS011;6773;51.192;7.024;2024-03-02T07:42:15;4.83;;;4.43;;
13404;SDS011;6773;51.192;7.024;2024-03-02T07:44:41;5.80;;;5.20;;
13404;SDS011;6773;51.192;7.024;2024-03-02T07:47:07;4.40;;;4.10;;
13404;SDS011;6773;51.192;7.024;2024-03-02T07:49:33;4.47;;;4.17;;
13404;SDS011;6773;51.192;7.024;2024-03-02T07:51:59;4.40;;;4.10;;
13404;SDS011;6773;51.192;7.024;2024-03-02T07:54:25;4.80;;;4.10;;
13404;SDS011;6773;51.192;7.024;2024-03-02T07:56:51;5.43;;;4.23;;
13404;SDS011;6773;51.192;7.024;2024-03-02T07:59:17;4.70;;;4.30;;
13404;SDS011;6773;51.192;7.024;2024-03-02T08:01:43;4.63;;;4.20;;
13404;SDS011;6773;51.192;7.024;2024-03-02T08:04:09;5.23;;;4.40;;
13404;SDS011;6773;51.192;7.024;2024-03-02T08:06:35;4.93;;;4.20;;
13404;SDS011;6773;51.192;7.024;2024-03-02T08:09:01;4.40;;;4.10;;
13404;SDS011;6773;51.192;7.024;2024-03-02T08:11:29;5.03;;;4.33;;
13404;SDS011;6773;51.192;7.024;2024-03-02T08:13:56;3.80;;;3.60;;
13404;SDS011;6773;51.192;7.024;2024-03-02T08:16:22;4.07;;;3.77;;
13404;SDS011;6773;51.192;7.024;2024-03-02T08:18:49;6.10;;;4.13;;
13404;SDS011;6773;51.192;7.024;2024-03-02T08:21:14;5.77;;;4.70;;
13404;SDS011;6773;51.192;7.024;2024-03-02T08:23:40;4.13;;;3.83;;
13404;SDS011;6773;51.192;7.024;2024-03-02T08:26:08;4.80;;;3.67;;
13404;SDS011;6773;51.192;7.024;2024-03-02T08:28:34;4.30;;;3.90;;
13404;SDS011;6773;51.192;7.024;2024-03-02T08:31:02;4.17;;;3.87;;
13404;SDS011;6773;51.192;7.024;2024-03-02T08:33:28;4.63;;;4.23;;
13404;SDS011;6773;51.192;7.024;2024-03-02T08:35:54;4.53;;;4.23;;
13404;SDS011;6773;51.192;7.024;2024-03-02T08:38:20;4.30;;;3.90;;
13404;SDS011;6773;51.192;7.024;2024-03-02T08:40:46;4.10;;;3.80;;
13404;SDS011;6773;51.192;7.024;2024-03-02T08:43:12;4.20;;;3.80;;
13404;SDS011;6773;51.192;7.024;2024-03-02T08:45:39;4.63;;;4.23;;
13404;SDS011;6773;51.192;7.024;2024-03-02T08:48:08;4.40;;;4.00;;
13404;SDS011;6773;51.192;7.024;2024-03-02T08:50:34;4.17;;;3.87;;
13404;SDS011;6773;51.192;7.024;2024-03-02T08:53:01;5.20;;;3.83;;
13404;SDS011;6773;51.192;7.024;2024-03-02T08:55:27;4.33;;;4.03;;
13404;SDS011;6773;51.192;7.024;2024-03-02T08:57:53;4.43;;;4.03;;
13404;SDS011;6773;51.192;7.024;2024-03-02T09:00:19;4.40;;;3.90;;
13404;SDS011;6773;51.192;7.024;2024-03-02T09:02:45;4.27;;;3.97;;
13404;SDS011;6773;51.192;7.024;2024-03-02T09:05:11;4.43;;;4.03;;
13404;SDS011;6773;51.192;7.024;2024-03-02T09:07:38;4.10;;;3.90;;
13404;SDS011;6773;51.192;7.024;2024-03-02T09:10:07;3.80;;;3.50;;
13404;SDS011;6773;51.192;7.024;2024-03-02T09:12:33;4.00;;;3.80;;
13404;SDS011;6773;51.192;7.024;2024-03-02T09:15:00;4.23;;;3.80;;
13404;SDS011;6773;51.192;7.024;2024-03-02T09:17:26;4.53;;;4.13;;
13404;SDS011;6773;51.192;7.024;2024-03-02T09:19:52;3.70;;;3.40;;
13404;SDS011;6773;51.192;7.024;2024-03-02T09:22:19;3.93;;;3.63;;
13404;SDS011;6773;51.192;7.024;2024-03-02T09:24:44;3.50;;;3.30;;
13404;SDS011;6773;51.192;7.024;2024-03-02T09:27:10;3.63;;;3.30;;
13404;SDS011;6773;51.192;7.024;2024-03-02T09:29:36;4.57;;;3.50;;
13404;SDS011;6773;51.192;7.024;2024-03-02T09:32:02;3.73;;;3.43;;
13404;SDS011;6773;51.192;7.024;2024-03-02T09:34:28;3.20;;;3.00;;
13404;SDS011;6773;51.192;7.024;2024-03-02T09:36:54;3.87;;;3.30;;
13404;SDS011;6773;51.192;7.024;2024-03-02T09:39:20;3.20;;;2.90;;
13404;SDS011;6773;51.192;7.024;2024-03-02T09:41:47;3.47;;;3.00;;
13404;SDS011;6773;51.192;7.024;2024-03-02T09:44:13;3.50;;;3.20;;
13404;SDS011;6773;51.192;7.024;2024-03-02T09:46:40;3.30;;;3.07;;
13404;SDS011;6773;51.192;7.024;2024-03-02T09:49:08;3.23;;;3.10;;
13404;SDS011;6773;51.192;7.024;2024-03-02T09:51:35;3.00;;;2.70;;
13404;SDS011;6773;51.192;7.024;2024-03-02T09:54:01;2.97;;;2.77;;
13404;SDS011;6773;51.192;7.024;2024-03-02T09:56:27;4.37;;;3.30;;
13404;SDS011;6773;51.192;7.024;2024-03-02T09:58:53;2.90;;;2.70;;
13404;SDS011;6773;51.192;7.024;2024-03-02T10:01:19;3.20;;;2.90;;
13404;SDS011;6773;51.192;7.024;2024-03-02T10:03:45;3.20;;;2.90;;
13404;SDS011;6773;51.192;7.024;2024-03-02T10:06:22;3.20;;;3.00;;
13404;SDS011;6773;51.192;7.024;2024-03-02T10:08:48;2.73;;;2.53;;
13404;SDS011;6773;51.192;7.024;2024-03-02T10:11:27;4.17;;;2.77;;
13404;SDS011;6773;51.192;7.024;2024-03-02T10:14:07;3.10;;;2.50;;
13404;SDS011;6773;51.192;7.024;2024-03-02T10:16:34;2.63;;;2.30;;
13404;SDS011;6773;51.192;7.024;2024-03-02T10:19:22;5.00;;;2.83;;
13404;SDS011;6773;51.192;7.024;2024-03-02T10:21:55;2.90;;;2.70;;
13404;SDS011;6773;51.192;7.024;2024-03-02T10:24:23;2.77;;;2.40;;
13404;SDS011;6773;51.192;7.024;2024-03-02T10:26:49;2.40;;;2.20;;
13404;SDS011;6773;51.192;7.024;2024-03-02T10:29:15;2.87;;;2.33;;
13404;SDS011;6773;51.192;7.024;2024-03-02T10:31:41;2.30;;;2.20;;
13404;SDS011;6773;51.192;7.024;2024-03-02T10:34:13;2.50;;;2.30;;
13404;SDS011;6773;51.192;7.024;2024-03-02T10:36:41;2.40;;;2.20;;
13404;SDS011;6773;51.192;7.024;2024-03-02T10:39:08;3.10;;;2.30;;
13404;SDS011;6773;51.192;7.024;2024-03-02T10:41:35;2.87;;;2.20;;
13404;SDS011;6773;51.192;7.024;2024-03-02T10:44:05;3.90;;;2.20;;
13404;SDS011;6773;51.192;7.024;2024-03-02T10:46:34;2.47;;;2.23;;
13404;SDS011;6773;51.192;7.024;2024-03-02T10:49:01;2.83;;;2.10;;
13404;SDS011;6773;51.192;7.024;2024-03-02T10:51:27;2.60;;;2.40;;
13404;SDS011;6773;51.192;7.024;2024-03-02T10:53:56;2.57;;;2.37;;
13404;SDS011;6773;51.192;7.024;2024-03-02T11:02:01;2.40;;;2.30;;
13404;SDS011;6773;51.192;7.024;2024-03-02T11:04:28;3.47;;;2.33;;
13404;SDS011;6773;51.192;7.024;2024-03-02T11:06:56;2.33;;;2.23;;
13404;SDS011;6773;51.192;7.024;2024-03-02T11:09:24;3.10;;;2.23;;
13404;SDS011;6773;51.192;7.024;2024-03-02T11:11:54;2.30;;;1.97;;
13404;SDS011;6773;51.192;7.024;2024-03-02T11:14:24;2.10;;;2.00;;
13404;SDS011;6773;51.192;7.024;2024-03-02T11:16:50;3.83;;;2.50;;
13404;SDS011;6773;51.192;7.024;2024-03-02T11:19:17;2.40;;;2.00;;
13404;SDS011;6773;51.192;7.024;2024-03-02T11:21:43;2.60;;;2.40;;
13404;SDS011;6773;51.192;7.024;2024-03-02T11:27:08;2.43;;;2.23;;
13404;SDS011;6773;51.192;7.024;2024-03-02T11:34:30;2.58;;;2.38;;
13404;SDS011;6773;51.192;7.024;2024-03-02T11:36:57;2.10;;;2.00;;
13404;SDS011;6773;51.192;7.024;2024-03-02T11:39:26;3.87;;;2.40;;
13404;SDS011;6773;51.192;7.024;2024-03-02T11:41:52;2.57;;;2.20;;
13404;SDS011;6773;51.192;7.024;2024-03-02T11:44:18;2.57;;;2.20;;
13404;SDS011;6773;51.192;7.024;2024-03-02T11:46:45;2.20;;;2.00;;
13404;SDS011;6773;51.192;7.024;2024-03-02T11:49:20;3.50;;;2.50;;
13404;SDS011;6773;51.192;7.024;2024-03-02T11:51:50;2.00;;;1.90;;
13404;SDS011;6773;51.192;7.024;2024-03-02T11:54:18;2.20;;;2.10;;
13404;SDS011;6773;51.192;7.024;2024-03-02T11:56:45;3.67;;;3.03;;
13404;SDS011;6773;51.192;7.024;2024-03-02T11:59:11;2.80;;;2.60;;
13404;SDS011;6773;51.192;7.024;2024-03-02T12:01:37;2.50;;;2.30;;
13404;SDS011;6773;51.192;7.024;2024-03-02T12:04:04;2.38;;;1.92;;
13404;SDS011;6773;51.192;7.024;2024-03-02T12:06:31;3.55;;;2.35;;
13404;SDS011;6773;51.192;7.024;2024-03-02T12:08:57;2.65;;;2.42;;
13404;SDS011;6773;51.192;7.024;2024-03-02T12:11:23;2.63;;;2.40;;
13404;SDS011;6773;51.192;7.024;2024-03-02T12:13:52;2.00;;;1.90;;
13404;SDS011;6773;51.192;7.024;2024-03-02T12:16:22;2.28;;;2.00;;
13404;SDS011;6773;51.192;7.024;2024-03-02T12:18:48;2.03;;;1.93;;
13404;SDS011;6773;51.192;7.024;2024-03-02T12:21:14;3.28;;;2.20;;
13404;SDS011;6773;51.192;7.024;2024-03-02T12:23:40;2.47;;;2.28;;
13404;SDS011;6773;51.192;7.024;2024-03-02T12:26:06;2.80;;;2.33;;
13404;SDS011;6773;51.192;7.024;2024-03-02T12:28:33;2.33;;;2.20;;
13404;SDS011;6773;51.192;7.024;2024-03-02T12:30:59;2.10;;;2.00;;
13404;SDS011;6773;51.192;7.024;2024-03-02T12:33:25;2.00;;;1.90;;
13404;SDS011;6773;51.192;7.024;2024-03-02T12:35:52;2.73;;;2.30;;
13404;SDS011;6773;51.192;7.024;2024-03-02T12:38:18;2.40;;;2.30;;
13404;SDS011;6773;51.192;7.024;2024-03-02T12:40:44;2.20;;;2.10;;
13404;SDS011;6773;51.192;7.024;2024-03-02T12:43:12;2.10;;;2.00;;
13404;SDS011;6773;51.192;7.024;2024-03-02T12:45:38;2.40;;;2.27;;
13404;SDS011;6773;51.192;7.024;2024-03-02T12:48:04;2.37;;;2.17;;
13404;SDS011;6773;51.192;7.024;2024-03-02T12:50:30;2.47;;;2.27;;
13404;SDS011;6773;51.192;7.024;2024-03-02T12:52:56;2.60;;;2.50;;
13404;SDS011;6773;51.192;7.024;2024-03-02T12:55:22;2.27;;;2.17;;
13404;SDS011;6773;51.192;7.024;2024-03-02T12:57:52;2.30;;;2.10;;
13404;SDS011;6773;51.192;7.024;2024-03-02T13:00:18;2.90;;;2.70;;
13404;SDS011;6773;51.192;7.024;2024-03-02T13:02:45;2.40;;;2.20;;
13404;SDS011;6773;51.192;7.024;2024-03-02T13:05:11;2.40;;;2.20;;
13404;SDS011;6773;51.192;7.024;2024-03-02T13:07:38;2.40;;;2.20;;
13404;SDS011;6773;51.192;7.024;2024-03-02T13:10:04;2.50;;;2.30;;
13404;SDS011;6773;51.192;7.024;2024-03-02T13:12:31;2.57;;;2.37;;
13404;SDS011;6773;51.192;7.024;2024-03-02T13:14:58;2.17;;;2.00;;
13404;SDS011;6773;51.192;7.024;2024-03-02T13:17:24;2.33;;;2.13;;
13404;SDS011;6773;51.192;7.024;2024-03-02T13:19:52;2.23;;;2.13;;
13404;SDS011;6773;51.192;7.024;2024-03-02T13:22:18;2.13;;;2.03;;
13404;SDS011;6773;51.192;7.024;2024-03-02T13:24:44;2.10;;;2.00;;
13404;SDS011;6773;51.192;7.024;2024-03-02T13:27:09;2.23;;;2.10;;
13404;SDS011;6773;51.192;7.024;2024-03-02T13:29:35;2.30;;;2.10;;
13404;SDS011;6773;51.192;7.024;2024-03-02T13:32:02;2.00;;;1.90;;
13404;SDS011;6773;51.192;7.024;2024-03-02T13:34:28;2.10;;;2.00;;
13404;SDS011;6773;51.192;7.024;2024-03-02T13:36:54;2.53;;;2.30;;
13404;SDS011;6773;51.192;7.024;2024-03-02T13:39:20;2.20;;;2.00;;
13404;SDS011;6773;51.192;7.024;2024-03-02T13:41:46;2.17;;;2.07;;
13404;SDS011;6773;51.192;7.024;2024-03-02T13:44:18;2.23;;;1.90;;
13404;SDS011;6773;51.192;7.024;2024-03-02T13:46:44;2.80;;;2.40;;
13404;SDS011;6773;51.192;7.024;2024-03-02T13:49:11;2.80;;;2.57;;
13404;SDS011;6773;51.192;7.024;2024-03-02T13:51:37;2.20;;;2.10;;
13404;SDS011;6773;51.192;7.024;2024-03-02T13:54:03;5.83;;;5.23;;
13404;SDS011;6773;51.192;7.024;2024-03-02T13:56:29;2.70;;;2.50;;
13404;SDS011;6773;51.192;7.024;2024-03-02T13:58:55;2.47;;;2.30;;
13404;SDS011;6773;51.192;7.024;2024-03-02T14:01:21;4.27;;;3.90;;
13404;SDS011;6773;51.192;7.024;2024-03-02T14:03:47;2.70;;;2.50;;
13404;SDS011;6773;51.192;7.024;2024-03-02T14:06:13;2.30;;;2.20;;
13404;SDS011;6773;51.192;7.024;2024-03-02T14:08:39;2.90;;;2.70;;
13404;SDS011;6773;51.192;7.024;2024-03-02T14:11:05;5.63;;;5.00;;
13404;SDS011;6773;51.192;7.024;2024-03-02T14:13:31;3.77;;;3.47;;
13404;SDS011;6773;51.192;7.024;2024-03-02T14:15:57;2.60;;;2.40;;
13404;SDS011;6773;51.192;7.024;2024-03-02T14:18:23;2.83;;;2.63;;
13404;SDS011;6773;51.192;7.024;2024-03-02T14:20:48;2.47;;;2.10;;
13404;SDS011;6773;51.192;7.024;2024-03-02T14:23:17;2.30;;;1.93;;
13404;SDS011;6773;51.192;7.024;2024-03-02T14:25:44;1.97;;;1.87;;
13404;SDS011;6773;51.192;7.024;2024-03-02T14:28:10;2.00;;;1.90;;
13404;SDS011;6773;51.192;7.024;2024-03-02T14:30:37;2.63;;;2.10;;
13404;SDS011;6773;51.192;7.024;2024-03-02T14:33:03;1.93;;;1.83;;
13404;SDS011;6773;51.192;7.024;2024-03-02T14:35:29;2.03;;;1.93;;
13404;SDS011;6773;51.192;7.024;2024-03-02T14:37:55;2.17;;;2.00;;
13404;SDS011;6773;51.192;7.024;2024-03-02T14:40:22;2.40;;;2.20;;
13404;SDS011;6773;51.192;7.024;2024-03-02T14:42:51;5.57;;;3.40;;
13404;SDS011;6773;51.192;7.024;2024-03-02T14:45:17;3.40;;;3.10;;
13404;SDS011;6773;51.192;7.024;2024-03-02T14:47:43;6.07;;;5.30;;
13404;SDS011;6773;51.192;7.024;2024-03-02T14:50:09;2.00;;;1.90;;
13404;SDS011;6773;51.192;7.024;2024-03-02T14:52:36;1.90;;;1.80;;
13404;SDS011;6773;51.192;7.024;2024-03-02T14:55:01;2.00;;;1.90;;
13404;SDS011;6773;51.192;7.024;2024-03-02T14:57:32;2.40;;;2.20;;
13404;SDS011;6773;51.192;7.024;2024-03-02T14:59:58;1.90;;;1.80;;
13404;SDS011;6773;51.192;7.024;2024-03-02T15:02:24;2.33;;;2.00;;
13404;SDS011;6773;51.192;7.024;2024-03-02T15:04:50;2.27;;;2.00;;
13404;SDS011;6773;51.192;7.024;2024-03-02T15:07:16;2.67;;;2.00;;
13404;SDS011;6773;51.192;7.024;2024-03-02T15:09:42;2.20;;;1.90;;